sensor_id;sensor_type;location;lat;lon;timestamp;P1;durP1;ratioP1;P2;durP2;ratioP2
59157;SDS011;44940;55.060;73.168;2022-07-29T00:00:08;13.60;;;8.48;;
59157;SDS011;44940;55.060;73.168;2022-07-29T00:02:36;13.77;;;8.85;;
59157;SDS011;44940;55.060;73.168;2022-07-29T00:05:04;12.50;;;7.80;;
59157;SDS011;44940;55.060;73.168;2022-07-29T00:07:31;15.13;;;8.00;;
59157;SDS011;44940;55.060;73.168;2022-07-29T00:09:58;12.55;;;8.13;;
59157;SDS011;44940;55.060;73.168;2022-07-29T00:12:25;15.90;;;8.50;;
59157;SDS011;44940;55.060;73.168;2022-07-29T00:14:54;16.40;;;8.05;;
59157;SDS011;44940;55.060;73.168;2022-07-29T00:17:21;17.40;;;8.32;;
59157;SDS011;44940;55.060;73.168;2022-07-29T00:19:48;10.40;;;6.38;;
59157;SDS011;44940;55.060;73.168;2022-07-29T00:22:15;11.13;;;7.20;;
59157;SDS011;44940;55.060;73.168;2022-07-29T00:24:43;13.05;;;7.10;;
59157;SDS011;44940;55.060;73.168;2022-07-29T00:27:10;11.77;;;7.32;;
59157;SDS011;44940;55.060;73.168;2022-07-29T00:29:37;11.45;;;6.88;;
59157;SDS011;44940;55.060;73.168;2022-07-29T00:32:06;9.30;;;6.15;;
59157;SDS011;44940;55.060;73.168;2022-07-29T00:34:33;11.48;;;6.50;;
59157;SDS011;44940;55.060;73.168;2022-07-29T00:37:19;9.27;;;6.13;;
59157;SDS011;44940;55.060;73.168;2022-07-29T00:39:46;13.35;;;7.50;;
59157;SDS011;44940;55.060;73.168;2022-07-29T00:42:13;27.58;;;17.48;;
59157;SDS011;44940;55.060;73.168;2022-07-29T00:44:40;26.70;;;15.98;;
59157;SDS011;44940;55.060;73.168;2022-07-29T00:47:09;27.55;;;18.48;;
59157;SDS011;44940;55.060;73.168;2022-07-29T00:49:38;22.25;;;15.40;;
59157;SDS011;44940;55.060;73.168;2022-07-29T00:52:06;9.80;;;6.63;;
59157;SDS011;44940;55.060;73.168;2022-07-29T00:54:35;9.32;;;6.10;;
59157;SDS011;44940;55.060;73.168;2022-07-29T00:57:02;7.53;;;5.53;;
59157;SDS011;44940;55.060;73.168;2022-07-29T00:59:29;7.35;;;5.30;;
59157;SDS011;44940;55.060;73.168;2022-07-29T01:01:57;8.95;;;5.30;;
59157;SDS011;44940;55.060;73.168;2022-07-29T01:04:25;7.20;;;4.65;;
59157;SDS011;44940;55.060;73.168;2022-07-29T01:06:52;8.95;;;4.47;;
59157;SDS011;44940;55.060;73.168;2022-07-29T01:09:20;8.32;;;4.63;;
59157;SDS011;44940;55.060;73.168;2022-07-29T01:11:49;7.85;;;4.90;;
59157;SDS011;44940;55.060;73.168;2022-07-29T01:14:17;13.40;;;6.00;;
59157;SDS011;44940;55.060;73.168;2022-07-29T01:16:46;12.30;;;5.30;;
59157;SDS011;44940;55.060;73.168;2022-07-29T01:19:23;7.00;;;4.72;;
59157;SDS011;44940;55.060;73.168;2022-07-29T01:22:15;7.03;;;4.88;;
59157;SDS011;44940;55.060;73.168;2022-07-29T01:27:54;9.70;;;5.63;;
59157;SDS011;44940;55.060;73.168;2022-07-29T01:30:37;12.73;;;5.43;;
59157;SDS011;44940;55.060;73.168;2022-07-29T01:33:07;8.77;;;5.20;;
59157;SDS011;44940;55.060;73.168;2022-07-29T01:35:57;8.32;;;5.35;;
59157;SDS011;44940;55.060;73.168;2022-07-29T01:38:27;11.00;;;5.53;;
59157;SDS011;44940;55.060;73.168;2022-07-29T01:40:58;9.23;;;4.75;;
59157;SDS011;44940;55.060;73.168;2022-07-29T01:43:32;9.27;;;5.18;;
59157;SDS011;44940;55.060;73.168;2022-07-29T01:46:11;11.02;;;6.05;;
59157;SDS011;44940;55.060;73.168;2022-07-29T01:48:42;11.55;;;5.40;;
59157;SDS011;44940;55.060;73.168;2022-07-29T01:51:14;8.30;;;4.97;;
59157;SDS011;44940;55.060;73.168;2022-07-29T01:53:45;7.88;;;5.22;;
59157;SDS011;44940;55.060;73.168;2022-07-29T01:56:16;9.57;;;6.20;;
59157;SDS011;44940;55.060;73.168;2022-07-29T01:58:46;10.57;;;6.32;;
59157;SDS011;44940;55.060;73.168;2022-07-29T02:01:16;9.68;;;6.43;;
59157;SDS011;44940;55.060;73.168;2022-07-29T02:03:47;12.73;;;6.10;;
59157;SDS011;44940;55.060;73.168;2022-07-29T02:06:16;11.57;;;7.07;;
59157;SDS011;44940;55.060;73.168;2022-07-29T02:08:47;10.30;;;7.63;;
59157;SDS011;44940;55.060;73.168;2022-07-29T02:11:16;19.40;;;13.55;;
59157;SDS011;44940;55.060;73.168;2022-07-29T02:13:43;28.83;;;24.92;;
59157;SDS011;44940;55.060;73.168;2022-07-29T02:16:12;35.47;;;30.33;;
59157;SDS011;44940;55.060;73.168;2022-07-29T02:18:43;39.00;;;30.60;;
59157;SDS011;44940;55.060;73.168;2022-07-29T02:21:14;35.78;;;30.17;;
59157;SDS011;44940;55.060;73.168;2022-07-29T02:23:45;35.07;;;29.93;;
59157;SDS011;44940;55.060;73.168;2022-07-29T02:26:14;42.97;;;36.15;;
59157;SDS011;44940;55.060;73.168;2022-07-29T02:28:43;39.72;;;33.92;;
59157;SDS011;44940;55.060;73.168;2022-07-29T02:31:11;46.08;;;38.65;;
59157;SDS011;44940;55.060;73.168;2022-07-29T02:33:39;35.25;;;30.00;;
59157;SDS011;44940;55.060;73.168;2022-07-29T02:36:09;43.10;;;36.47;;
59157;SDS011;44940;55.060;73.168;2022-07-29T02:38:37;14.70;;;9.05;;
59157;SDS011;44940;55.060;73.168;2022-07-29T02:41:23;12.57;;;6.93;;
59157;SDS011;44940;55.060;73.168;2022-07-29T02:43:55;8.77;;;6.32;;
59157;SDS011;44940;55.060;73.168;2022-07-29T02:46:25;11.50;;;6.55;;
59157;SDS011;44940;55.060;73.168;2022-07-29T02:48:58;14.60;;;6.45;;
59157;SDS011;44940;55.060;73.168;2022-07-29T02:51:34;10.23;;;6.53;;
59157;SDS011;44940;55.060;73.168;2022-07-29T02:54:08;10.18;;;6.35;;
59157;SDS011;44940;55.060;73.168;2022-07-29T02:56:37;14.20;;;6.53;;
59157;SDS011;44940;55.060;73.168;2022-07-29T02:59:07;10.70;;;6.78;;
59157;SDS011;44940;55.060;73.168;2022-07-29T03:01:39;17.30;;;13.40;;
59157;SDS011;44940;55.060;73.168;2022-07-29T03:04:09;25.67;;;20.63;;
59157;SDS011;44940;55.060;73.168;2022-07-29T03:06:39;11.88;;;8.88;;
59157;SDS011;44940;55.060;73.168;2022-07-29T03:09:10;27.73;;;18.92;;
59157;SDS011;44940;55.060;73.168;2022-07-29T03:11:39;57.20;;;43.17;;
59157;SDS011;44940;55.060;73.168;2022-07-29T03:14:06;35.38;;;25.38;;
59157;SDS011;44940;55.060;73.168;2022-07-29T03:16:34;35.17;;;25.73;;
59157;SDS011;44940;55.060;73.168;2022-07-29T03:19:02;40.58;;;30.40;;
59157;SDS011;44940;55.060;73.168;2022-07-29T03:21:30;17.15;;;10.38;;
59157;SDS011;44940;55.060;73.168;2022-07-29T03:23:59;10.57;;;6.78;;
59157;SDS011;44940;55.060;73.168;2022-07-29T03:26:26;8.38;;;5.25;;
59157;SDS011;44940;55.060;73.168;2022-07-29T03:28:54;11.32;;;5.53;;
59157;SDS011;44940;55.060;73.168;2022-07-29T03:31:21;15.25;;;8.80;;
59157;SDS011;44940;55.060;73.168;2022-07-29T03:33:48;27.05;;;12.90;;
59157;SDS011;44940;55.060;73.168;2022-07-29T03:36:15;65.22;;;34.83;;
59157;SDS011;44940;55.060;73.168;2022-07-29T03:38:42;70.47;;;37.90;;
59157;SDS011;44940;55.060;73.168;2022-07-29T03:41:13;63.45;;;37.97;;
59157;SDS011;44940;55.060;73.168;2022-07-29T03:43:42;42.70;;;29.73;;
59157;SDS011;44940;55.060;73.168;2022-07-29T03:46:11;49.55;;;30.52;;
59157;SDS011;44940;55.060;73.168;2022-07-29T03:48:41;70.00;;;43.00;;
59157;SDS011;44940;55.060;73.168;2022-07-29T03:51:13;99.38;;;56.17;;
59157;SDS011;44940;55.060;73.168;2022-07-29T03:53:40;62.35;;;35.15;;
59157;SDS011;44940;55.060;73.168;2022-07-29T03:56:07;79.90;;;45.33;;
59157;SDS011;44940;55.060;73.168;2022-07-29T03:58:39;67.65;;;40.30;;
59157;SDS011;44940;55.060;73.168;2022-07-29T04:01:07;111.25;;;63.20;;
59157;SDS011;44940;55.060;73.168;2022-07-29T04:03:35;87.70;;;55.17;;
59157;SDS011;44940;55.060;73.168;2022-07-29T04:06:03;58.17;;;38.33;;
59157;SDS011;44940;55.060;73.168;2022-07-29T04:08:34;75.35;;;54.78;;
59157;SDS011;44940;55.060;73.168;2022-07-29T04:11:01;66.10;;;48.20;;
59157;SDS011;44940;55.060;73.168;2022-07-29T04:13:29;65.20;;;43.00;;
59157;SDS011;44940;55.060;73.168;2022-07-29T04:15:57;45.60;;;35.15;;
59157;SDS011;44940;55.060;73.168;2022-07-29T04:18:25;47.28;;;35.22;;
59157;SDS011;44940;55.060;73.168;2022-07-29T04:20:52;48.70;;;37.53;;
59157;SDS011;44940;55.060;73.168;2022-07-29T04:23:19;41.97;;;31.65;;
59157;SDS011;44940;55.060;73.168;2022-07-29T04:25:46;59.13;;;38.92;;
59157;SDS011;44940;55.060;73.168;2022-07-29T04:28:14;80.45;;;50.67;;
59157;SDS011;44940;55.060;73.168;2022-07-29T04:30:41;68.90;;;45.80;;
59157;SDS011;44940;55.060;73.168;2022-07-29T04:33:09;14.13;;;10.95;;
59157;SDS011;44940;55.060;73.168;2022-07-29T04:35:36;14.68;;;9.85;;
59157;SDS011;44940;55.060;73.168;2022-07-29T04:38:04;19.10;;;11.52;;
59157;SDS011;44940;55.060;73.168;2022-07-29T04:40:32;18.67;;;12.27;;
59157;SDS011;44940;55.060;73.168;2022-07-29T04:43:00;15.80;;;10.48;;
59157;SDS011;44940;55.060;73.168;2022-07-29T04:45:27;19.92;;;11.77;;
59157;SDS011;44940;55.060;73.168;2022-07-29T04:47:55;20.95;;;11.80;;
59157;SDS011;44940;55.060;73.168;2022-07-29T04:50:23;62.42;;;34.40;;
59157;SDS011;44940;55.060;73.168;2022-07-29T04:52:50;54.75;;;29.30;;
59157;SDS011;44940;55.060;73.168;2022-07-29T04:55:17;41.25;;;25.00;;
59157;SDS011;44940;55.060;73.168;2022-07-29T04:57:44;38.08;;;23.67;;
59157;SDS011;44940;55.060;73.168;2022-07-29T05:00:12;29.00;;;19.50;;
59157;SDS011;44940;55.060;73.168;2022-07-29T05:02:39;32.75;;;19.00;;
59157;SDS011;44940;55.060;73.168;2022-07-29T05:05:06;34.08;;;21.52;;
59157;SDS011;44940;55.060;73.168;2022-07-29T05:07:35;37.50;;;23.10;;
59157;SDS011;44940;55.060;73.168;2022-07-29T05:10:02;33.97;;;23.10;;
59157;SDS011;44940;55.060;73.168;2022-07-29T05:12:30;38.38;;;27.35;;
59157;SDS011;44940;55.060;73.168;2022-07-29T05:14:57;46.40;;;34.45;;
59157;SDS011;44940;55.060;73.168;2022-07-29T05:17:24;70.22;;;52.92;;
59157;SDS011;44940;55.060;73.168;2022-07-29T05:19:52;59.08;;;43.58;;
59157;SDS011;44940;55.060;73.168;2022-07-29T05:22:19;50.80;;;40.30;;
59157;SDS011;44940;55.060;73.168;2022-07-29T05:24:48;42.47;;;25.52;;
59157;SDS011;44940;55.060;73.168;2022-07-29T05:27:15;28.98;;;18.75;;
59157;SDS011;44940;55.060;73.168;2022-07-29T05:29:42;50.75;;;38.22;;
59157;SDS011;44940;55.060;73.168;2022-07-29T05:32:10;40.67;;;26.27;;
59157;SDS011;44940;55.060;73.168;2022-07-29T05:34:37;52.13;;;35.55;;
59157;SDS011;44940;55.060;73.168;2022-07-29T05:37:05;31.85;;;15.10;;
59157;SDS011;44940;55.060;73.168;2022-07-29T05:39:31;37.88;;;23.80;;
59157;SDS011;44940;55.060;73.168;2022-07-29T05:42:00;28.42;;;21.15;;
59157;SDS011;44940;55.060;73.168;2022-07-29T05:44:27;23.02;;;17.23;;
59157;SDS011;44940;55.060;73.168;2022-07-29T05:46:54;24.08;;;13.68;;
59157;SDS011;44940;55.060;73.168;2022-07-29T05:49:21;22.60;;;16.92;;
59157;SDS011;44940;55.060;73.168;2022-07-29T05:51:48;20.42;;;15.68;;
59157;SDS011;44940;55.060;73.168;2022-07-29T05:54:15;16.75;;;12.30;;
59157;SDS011;44940;55.060;73.168;2022-07-29T05:56:44;17.40;;;13.10;;
59157;SDS011;44940;55.060;73.168;2022-07-29T05:59:13;15.85;;;11.23;;
59157;SDS011;44940;55.060;73.168;2022-07-29T06:01:40;15.52;;;11.93;;
59157;SDS011;44940;55.060;73.168;2022-07-29T06:04:07;13.15;;;8.98;;
59157;SDS011;44940;55.060;73.168;2022-07-29T06:06:34;12.25;;;7.63;;
59157;SDS011;44940;55.060;73.168;2022-07-29T06:09:02;17.38;;;8.05;;
59157;SDS011;44940;55.060;73.168;2022-07-29T06:11:29;17.65;;;11.25;;
59157;SDS011;44940;55.060;73.168;2022-07-29T06:13:56;14.73;;;9.45;;
59157;SDS011;44940;55.060;73.168;2022-07-29T06:16:24;9.18;;;7.22;;
59157;SDS011;44940;55.060;73.168;2022-07-29T06:18:51;17.10;;;9.43;;
59157;SDS011;44940;55.060;73.168;2022-07-29T06:21:18;15.60;;;9.77;;
59157;SDS011;44940;55.060;73.168;2022-07-29T06:23:45;17.40;;;12.30;;
59157;SDS011;44940;55.060;73.168;2022-07-29T06:26:12;21.25;;;13.50;;
59157;SDS011;44940;55.060;73.168;2022-07-29T06:28:39;19.17;;;11.20;;
59157;SDS011;44940;55.060;73.168;2022-07-29T06:31:06;19.10;;;10.80;;
59157;SDS011;44940;55.060;73.168;2022-07-29T06:33:35;33.05;;;15.05;;
59157;SDS011;44940;55.060;73.168;2022-07-29T06:36:03;24.08;;;12.40;;
59157;SDS011;44940;55.060;73.168;2022-07-29T06:38:30;72.35;;;15.90;;
59157;SDS011;44940;55.060;73.168;2022-07-29T06:40:58;38.47;;;13.23;;
59157;SDS011;44940;55.060;73.168;2022-07-29T06:43:26;64.35;;;14.32;;
59157;SDS011;44940;55.060;73.168;2022-07-29T06:45:53;23.70;;;9.50;;
59157;SDS011;44940;55.060;73.168;2022-07-29T06:48:20;27.13;;;9.80;;
59157;SDS011;44940;55.060;73.168;2022-07-29T06:50:48;96.43;;;17.92;;
59157;SDS011;44940;55.060;73.168;2022-07-29T06:53:15;29.08;;;10.43;;
59157;SDS011;44940;55.060;73.168;2022-07-29T06:55:42;20.42;;;8.95;;
59157;SDS011;44940;55.060;73.168;2022-07-29T06:58:09;61.15;;;13.45;;
59157;SDS011;44940;55.060;73.168;2022-07-29T07:00:37;25.27;;;8.63;;
59157;SDS011;44940;55.060;73.168;2022-07-29T07:03:04;36.42;;;11.25;;
59157;SDS011;44940;55.060;73.168;2022-07-29T07:05:31;18.15;;;9.45;;
59157;SDS011;44940;55.060;73.168;2022-07-29T07:07:59;29.08;;;9.48;;
59157;SDS011;44940;55.060;73.168;2022-07-29T07:10:26;30.70;;;10.45;;
59157;SDS011;44940;55.060;73.168;2022-07-29T07:12:53;28.42;;;9.15;;
59157;SDS011;44940;55.060;73.168;2022-07-29T07:15:21;21.80;;;8.10;;
59157;SDS011;44940;55.060;73.168;2022-07-29T07:17:48;34.03;;;10.93;;
59157;SDS011;44940;55.060;73.168;2022-07-29T07:20:18;94.15;;;18.45;;
59157;SDS011;44940;55.060;73.168;2022-07-29T07:22:45;59.70;;;12.50;;
59157;SDS011;44940;55.060;73.168;2022-07-29T07:25:14;18.70;;;7.43;;
59157;SDS011;44940;55.060;73.168;2022-07-29T07:27:41;35.08;;;10.50;;
59157;SDS011;44940;55.060;73.168;2022-07-29T07:30:08;35.05;;;10.43;;
59157;SDS011;44940;55.060;73.168;2022-07-29T07:32:36;10.25;;;7.57;;
59157;SDS011;44940;55.060;73.168;2022-07-29T07:35:03;11.35;;;6.97;;
59157;SDS011;44940;55.060;73.168;2022-07-29T07:37:30;10.30;;;7.07;;
59157;SDS011;44940;55.060;73.168;2022-07-29T07:39:58;12.15;;;7.22;;
59157;SDS011;44940;55.060;73.168;2022-07-29T07:42:26;21.58;;;8.50;;
59157;SDS011;44940;55.060;73.168;2022-07-29T07:44:53;10.50;;;6.63;;
59157;SDS011;44940;55.060;73.168;2022-07-29T07:47:20;21.08;;;8.15;;
59157;SDS011;44940;55.060;73.168;2022-07-29T07:49:49;18.88;;;8.52;;
59157;SDS011;44940;55.060;73.168;2022-07-29T07:52:17;31.13;;;9.07;;
59157;SDS011;44940;55.060;73.168;2022-07-29T07:54:46;30.92;;;10.02;;
59157;SDS011;44940;55.060;73.168;2022-07-29T07:57:13;31.23;;;9.50;;
59157;SDS011;44940;55.060;73.168;2022-07-29T07:59:42;11.38;;;6.88;;
59157;SDS011;44940;55.060;73.168;2022-07-29T08:02:09;9.93;;;6.65;;
59157;SDS011;44940;55.060;73.168;2022-07-29T08:04:36;35.65;;;9.88;;
59157;SDS011;44940;55.060;73.168;2022-07-29T08:07:06;35.08;;;10.45;;
59157;SDS011;44940;55.060;73.168;2022-07-29T08:09:35;26.63;;;10.27;;
59157;SDS011;44940;55.060;73.168;2022-07-29T08:12:02;41.25;;;10.50;;
59157;SDS011;44940;55.060;73.168;2022-07-29T08:14:31;12.68;;;7.05;;
59157;SDS011;44940;55.060;73.168;2022-07-29T08:17:00;10.98;;;6.70;;
59157;SDS011;44940;55.060;73.168;2022-07-29T08:19:27;9.15;;;6.93;;
59157;SDS011;44940;55.060;73.168;2022-07-29T08:21:54;12.35;;;7.32;;
59157;SDS011;44940;55.060;73.168;2022-07-29T08:24:21;11.77;;;7.70;;
59157;SDS011;44940;55.060;73.168;2022-07-29T08:27:07;18.58;;;7.43;;
59157;SDS011;44940;55.060;73.168;2022-07-29T08:29:34;11.23;;;7.18;;
59157;SDS011;44940;55.060;73.168;2022-07-29T08:32:03;9.73;;;7.32;;
59157;SDS011;44940;55.060;73.168;2022-07-29T08:34:31;9.70;;;8.15;;
59157;SDS011;44940;55.060;73.168;2022-07-29T08:36:58;108.70;;;18.85;;
59157;SDS011;44940;55.060;73.168;2022-07-29T08:39:25;39.60;;;10.60;;
59157;SDS011;44940;55.060;73.168;2022-07-29T08:41:52;11.50;;;6.15;;
59157;SDS011;44940;55.060;73.168;2022-07-29T08:44:21;8.05;;;6.28;;
59157;SDS011;44940;55.060;73.168;2022-07-29T08:46:48;9.02;;;6.40;;
59157;SDS011;44940;55.060;73.168;2022-07-29T08:49:17;13.35;;;7.45;;
59157;SDS011;44940;55.060;73.168;2022-07-29T08:51:44;13.57;;;7.45;;
59157;SDS011;44940;55.060;73.168;2022-07-29T08:54:12;12.40;;;8.40;;
59157;SDS011;44940;55.060;73.168;2022-07-29T08:56:43;19.42;;;9.32;;
59157;SDS011;44940;55.060;73.168;2022-07-29T08:59:11;11.93;;;6.97;;
59157;SDS011;44940;55.060;73.168;2022-07-29T09:01:39;9.25;;;6.68;;
59157;SDS011;44940;55.060;73.168;2022-07-29T09:04:10;30.15;;;9.57;;
59157;SDS011;44940;55.060;73.168;2022-07-29T09:06:41;38.20;;;11.10;;
59157;SDS011;44940;55.060;73.168;2022-07-29T09:09:10;14.02;;;6.50;;
59157;SDS011;44940;55.060;73.168;2022-07-29T09:11:38;9.30;;;6.72;;
59157;SDS011;44940;55.060;73.168;2022-07-29T09:14:05;9.00;;;6.47;;
59157;SDS011;44940;55.060;73.168;2022-07-29T09:16:46;34.15;;;8.45;;
59157;SDS011;44940;55.060;73.168;2022-07-29T09:19:25;98.55;;;16.67;;
59157;SDS011;44940;55.060;73.168;2022-07-29T09:21:56;23.27;;;8.35;;
59157;SDS011;44940;55.060;73.168;2022-07-29T09:24:25;42.72;;;11.10;;
59157;SDS011;44940;55.060;73.168;2022-07-29T09:27:02;10.40;;;6.43;;
59157;SDS011;44940;55.060;73.168;2022-07-29T09:29:34;12.52;;;6.53;;
59157;SDS011;44940;55.060;73.168;2022-07-29T09:32:05;10.45;;;7.03;;
59157;SDS011;44940;55.060;73.168;2022-07-29T09:34:35;21.80;;;7.68;;
59157;SDS011;44940;55.060;73.168;2022-07-29T09:37:03;10.85;;;6.47;;
59157;SDS011;44940;55.060;73.168;2022-07-29T09:39:32;17.60;;;6.90;;
59157;SDS011;44940;55.060;73.168;2022-07-29T09:42:00;11.15;;;6.78;;
59157;SDS011;44940;55.060;73.168;2022-07-29T09:44:40;7.00;;;5.95;;
59157;SDS011;44940;55.060;73.168;2022-07-29T09:47:08;9.90;;;6.20;;
59157;SDS011;44940;55.060;73.168;2022-07-29T09:49:36;9.60;;;6.28;;
59157;SDS011;44940;55.060;73.168;2022-07-29T09:52:18;10.68;;;7.15;;
59157;SDS011;44940;55.060;73.168;2022-07-29T09:54:46;18.75;;;7.90;;
59157;SDS011;44940;55.060;73.168;2022-07-29T09:57:22;12.07;;;7.03;;
59157;SDS011;44940;55.060;73.168;2022-07-29T09:59:58;22.80;;;8.57;;
59157;SDS011;44940;55.060;73.168;2022-07-29T10:02:29;19.33;;;7.53;;
59157;SDS011;44940;55.060;73.168;2022-07-29T10:04:57;10.20;;;6.80;;
59157;SDS011;44940;55.060;73.168;2022-07-29T10:07:26;17.83;;;8.85;;
59157;SDS011;44940;55.060;73.168;2022-07-29T10:10:08;31.15;;;9.95;;
59157;SDS011;44940;55.060;73.168;2022-07-29T10:12:43;21.35;;;8.70;;
59157;SDS011;44940;55.060;73.168;2022-07-29T10:15:15;28.58;;;9.02;;
59157;SDS011;44940;55.060;73.168;2022-07-29T10:17:42;19.27;;;7.88;;
59157;SDS011;44940;55.060;73.168;2022-07-29T10:20:10;27.65;;;9.23;;
59157;SDS011;44940;55.060;73.168;2022-07-29T10:22:39;19.20;;;7.85;;
59157;SDS011;44940;55.060;73.168;2022-07-29T10:25:07;64.30;;;13.30;;
59157;SDS011;44940;55.060;73.168;2022-07-29T10:27:35;13.95;;;7.45;;
59157;SDS011;44940;55.060;73.168;2022-07-29T10:30:03;9.57;;;6.57;;
59157;SDS011;44940;55.060;73.168;2022-07-29T10:32:35;9.23;;;6.90;;
59157;SDS011;44940;55.060;73.168;2022-07-29T10:35:15;15.10;;;6.78;;
59157;SDS011;44940;55.060;73.168;2022-07-29T10:37:57;9.48;;;7.22;;
59157;SDS011;44940;55.060;73.168;2022-07-29T10:40:38;7.22;;;6.47;;
59157;SDS011;44940;55.060;73.168;2022-07-29T10:43:31;9.07;;;6.47;;
59157;SDS011;44940;55.060;73.168;2022-07-29T10:46:02;9.13;;;6.65;;
59157;SDS011;44940;55.060;73.168;2022-07-29T10:48:30;9.30;;;6.60;;
59157;SDS011;44940;55.060;73.168;2022-07-29T10:50:58;20.38;;;8.57;;
59157;SDS011;44940;55.060;73.168;2022-07-29T10:56:26;38.72;;;10.55;;
59157;SDS011;44940;55.060;73.168;2022-07-29T11:01:50;8.88;;;6.60;;
59157;SDS011;44940;55.060;73.168;2022-07-29T11:04:27;9.95;;;7.03;;
59157;SDS011;44940;55.060;73.168;2022-07-29T11:07:27;11.65;;;6.85;;
59157;SDS011;44940;55.060;73.168;2022-07-29T11:12:50;16.00;;;7.80;;
59157;SDS011;44940;55.060;73.168;2022-07-29T11:15:18;8.82;;;6.50;;
59157;SDS011;44940;55.060;73.168;2022-07-29T11:18:03;10.25;;;6.80;;
59157;SDS011;44940;55.060;73.168;2022-07-29T11:20:31;9.48;;;6.88;;
59157;SDS011;44940;55.060;73.168;2022-07-29T11:23:17;16.60;;;7.43;;
59157;SDS011;44940;55.060;73.168;2022-07-29T11:25:47;12.07;;;6.95;;
59157;SDS011;44940;55.060;73.168;2022-07-29T11:28:48;10.77;;;6.50;;
59157;SDS011;44940;55.060;73.168;2022-07-29T11:31:19;14.43;;;6.60;;
59157;SDS011;44940;55.060;73.168;2022-07-29T11:39:41;9.00;;;6.85;;
59157;SDS011;44940;55.060;73.168;2022-07-29T11:45:07;9.60;;;5.82;;
59157;SDS011;44940;55.060;73.168;2022-07-29T11:47:37;8.63;;;6.25;;
59157;SDS011;44940;55.060;73.168;2022-07-29T11:50:05;10.05;;;6.13;;
59157;SDS011;44940;55.060;73.168;2022-07-29T11:52:35;15.63;;;6.60;;
59157;SDS011;44940;55.060;73.168;2022-07-29T11:55:09;8.75;;;6.10;;
59157;SDS011;44940;55.060;73.168;2022-07-29T11:57:46;12.45;;;6.35;;
59157;SDS011;44940;55.060;73.168;2022-07-29T12:00:20;6.63;;;5.60;;
59157;SDS011;44940;55.060;73.168;2022-07-29T12:02:49;12.57;;;6.00;;
59157;SDS011;44940;55.060;73.168;2022-07-29T12:05:17;6.78;;;5.60;;
59157;SDS011;44940;55.060;73.168;2022-07-29T12:07:45;23.88;;;7.80;;
59157;SDS011;44940;55.060;73.168;2022-07-29T12:10:12;14.85;;;6.22;;
59157;SDS011;44940;55.060;73.168;2022-07-29T12:12:39;32.08;;;8.50;;
59157;SDS011;44940;55.060;73.168;2022-07-29T12:15:15;26.98;;;9.68;;
59157;SDS011;44940;55.060;73.168;2022-07-29T12:17:45;13.38;;;6.70;;
59157;SDS011;44940;55.060;73.168;2022-07-29T12:20:12;10.40;;;5.70;;
59157;SDS011;44940;55.060;73.168;2022-07-29T12:22:47;8.68;;;5.20;;
59157;SDS011;44940;55.060;73.168;2022-07-29T12:25:15;28.35;;;11.10;;
59157;SDS011;44940;55.060;73.168;2022-07-29T12:27:44;19.65;;;6.00;;
59157;SDS011;44940;55.060;73.168;2022-07-29T12:30:12;28.35;;;8.40;;
59157;SDS011;44940;55.060;73.168;2022-07-29T12:32:42;15.00;;;6.60;;
59157;SDS011;44940;55.060;73.168;2022-07-29T12:35:11;9.63;;;5.55;;
59157;SDS011;44940;55.060;73.168;2022-07-29T12:37:40;12.90;;;6.10;;
59157;SDS011;44940;55.060;73.168;2022-07-29T12:40:09;9.05;;;4.72;;
59157;SDS011;44940;55.060;73.168;2022-07-29T12:42:38;7.30;;;4.43;;
59157;SDS011;44940;55.060;73.168;2022-07-29T12:45:06;6.97;;;4.78;;
59157;SDS011;44940;55.060;73.168;2022-07-29T12:47:37;6.55;;;4.97;;
59157;SDS011;44940;55.060;73.168;2022-07-29T12:50:18;8.35;;;4.60;;
59157;SDS011;44940;55.060;73.168;2022-07-29T12:52:46;7.72;;;5.25;;
59157;SDS011;44940;55.060;73.168;2022-07-29T12:55:13;7.80;;;4.70;;
59157;SDS011;44940;55.060;73.168;2022-07-29T12:57:44;18.58;;;5.38;;
59157;SDS011;44940;55.060;73.168;2022-07-29T13:00:13;11.07;;;5.40;;
59157;SDS011;44940;55.060;73.168;2022-07-29T13:02:42;7.75;;;4.85;;
59157;SDS011;44940;55.060;73.168;2022-07-29T13:05:10;7.30;;;5.03;;
59157;SDS011;44940;55.060;73.168;2022-07-29T13:07:39;8.88;;;4.68;;
59157;SDS011;44940;55.060;73.168;2022-07-29T13:10:10;10.55;;;5.10;;
59157;SDS011;44940;55.060;73.168;2022-07-29T13:12:38;8.80;;;4.57;;
59157;SDS011;44940;55.060;73.168;2022-07-29T13:15:12;8.68;;;4.47;;
59157;SDS011;44940;55.060;73.168;2022-07-29T13:17:41;16.70;;;4.95;;
59157;SDS011;44940;55.060;73.168;2022-07-29T13:20:10;7.55;;;4.15;;
59157;SDS011;44940;55.060;73.168;2022-07-29T13:22:39;11.88;;;4.35;;
59157;SDS011;44940;55.060;73.168;2022-07-29T13:25:08;8.73;;;4.18;;
59157;SDS011;44940;55.060;73.168;2022-07-29T13:27:36;6.03;;;4.20;;
59157;SDS011;44940;55.060;73.168;2022-07-29T13:30:06;5.38;;;3.75;;
59157;SDS011;44940;55.060;73.168;2022-07-29T13:32:35;7.53;;;3.97;;
59157;SDS011;44940;55.060;73.168;2022-07-29T13:35:07;6.35;;;3.97;;
59157;SDS011;44940;55.060;73.168;2022-07-29T13:37:35;7.18;;;4.32;;
59157;SDS011;44940;55.060;73.168;2022-07-29T13:40:05;7.47;;;5.25;;
59157;SDS011;44940;55.060;73.168;2022-07-29T13:42:33;10.77;;;4.78;;
59157;SDS011;44940;55.060;73.168;2022-07-29T13:45:00;5.05;;;3.80;;
59157;SDS011;44940;55.060;73.168;2022-07-29T13:47:28;7.68;;;3.80;;
59157;SDS011;44940;55.060;73.168;2022-07-29T13:49:55;6.80;;;3.70;;
59157;SDS011;44940;55.060;73.168;2022-07-29T13:52:23;8.05;;;3.70;;
59157;SDS011;44940;55.060;73.168;2022-07-29T13:54:50;5.35;;;4.20;;
59157;SDS011;44940;55.060;73.168;2022-07-29T13:57:17;9.10;;;4.50;;
59157;SDS011;44940;55.060;73.168;2022-07-29T13:59:44;8.40;;;4.15;;
59157;SDS011;44940;55.060;73.168;2022-07-29T14:02:11;6.82;;;3.30;;
59157;SDS011;44940;55.060;73.168;2022-07-29T14:04:38;12.63;;;4.75;;
59157;SDS011;44940;55.060;73.168;2022-07-29T14:07:05;5.90;;;4.30;;
59157;SDS011;44940;55.060;73.168;2022-07-29T14:09:34;4.60;;;3.67;;
59157;SDS011;44940;55.060;73.168;2022-07-29T14:12:01;5.90;;;3.63;;
59157;SDS011;44940;55.060;73.168;2022-07-29T14:14:29;4.93;;;3.90;;
59157;SDS011;44940;55.060;73.168;2022-07-29T14:16:57;6.60;;;3.72;;
59157;SDS011;44940;55.060;73.168;2022-07-29T14:19:24;5.15;;;3.38;;
59157;SDS011;44940;55.060;73.168;2022-07-29T14:21:51;7.05;;;4.40;;
59157;SDS011;44940;55.060;73.168;2022-07-29T14:24:18;5.75;;;4.40;;
59157;SDS011;44940;55.060;73.168;2022-07-29T14:26:48;6.57;;;3.97;;
59157;SDS011;44940;55.060;73.168;2022-07-29T14:29:15;3.97;;;3.28;;
59157;SDS011;44940;55.060;73.168;2022-07-29T14:31:42;5.28;;;3.35;;
59157;SDS011;44940;55.060;73.168;2022-07-29T14:34:09;5.32;;;3.47;;
59157;SDS011;44940;55.060;73.168;2022-07-29T14:36:36;8.30;;;3.67;;
59157;SDS011;44940;55.060;73.168;2022-07-29T14:39:03;4.80;;;3.20;;
59157;SDS011;44940;55.060;73.168;2022-07-29T14:41:30;5.63;;;3.30;;
59157;SDS011;44940;55.060;73.168;2022-07-29T14:43:59;5.80;;;3.35;;
59157;SDS011;44940;55.060;73.168;2022-07-29T14:46:26;10.38;;;4.03;;
59157;SDS011;44940;55.060;73.168;2022-07-29T14:48:54;4.57;;;3.63;;
59157;SDS011;44940;55.060;73.168;2022-07-29T14:51:21;8.30;;;3.75;;
59157;SDS011;44940;55.060;73.168;2022-07-29T14:53:48;6.13;;;3.58;;